Time,TemperatureF,DewpointF,PressureIn,WindDirection,WindDirectionDegrees,WindSpeedMPH,WindSpeedGustMPH,Humidity,HourlyPrecipIn,Conditions,Clouds,dailyrainin,SoftwareType,DateUTC
2013-02-11 00:00:00,65.8,62.4,30.21,South,180,2.0,5.0,89,0.00,,,0.00,meteohub,2013-02-11 05:00:00,
2013-02-11 00:01:00,65.8,62.4,30.21,South,180,2.0,6.0,89,0.00,,,0.00,meteohub,2013-02-11 05:01:00,
2013-02-11 00:04:00,65.8,62.4,30.21,South,180,2.0,6.0,89,0.00,,,0.00,meteohub,2013-02-11 05:04:00,
2013-02-11 00:09:00,65.7,62.6,30.21,SW,225,4.0,6.0,90,0.00,,,0.00,meteohub,2013-02-11 05:09:00,
2013-02-11 00:14:00,65.7,63.0,30.21,SW,225,3.0,4.0,91,0.00,,,0.00,meteohub,2013-02-11 05:14:00,
2013-02-11 00:19:00,65.7,63.0,30.21,SW,225,3.0,4.0,91,0.00,,,0.00,meteohub,2013-02-11 05:19:00,
2013-02-11 00:24:00,65.5,62.8,30.21,South,180,6.0,6.0,91,0.00,,,0.00,meteohub,2013-02-11 05:24:00,
2013-02-11 00:29:00,65.5,62.8,30.21,South,180,3.0,4.0,91,0.00,,,0.00,meteohub,2013-02-11 05:29:00,
2013-02-11 00:34:00,65.3,62.6,30.21,SW,225,4.0,7.0,91,0.00,,,0.00,meteohub,2013-02-11 05:34:00,
2013-02-11 00:39:00,65.3,62.6,30.20,South,180,3.0,7.0,91,0.00,,,0.00,meteohub,2013-02-11 05:39:00,
2013-02-11 00:45:00,65.3,63.0,30.20,North,0,5.0,7.0,92,0.00,,,0.00,meteohub,2013-02-11 05:45:00,
2013-02-11 00:50:00,65.3,63.0,30.20,South,180,3.0,5.0,92,0.00,,,0.00,meteohub,2013-02-11 05:50:00,
2013-02-11 00:55:00,65.3,63.0,30.20,South,180,3.0,6.0,92,0.00,,,0.00,meteohub,2013-02-11 05:55:00,
2013-02-11 01:00:00,65.3,63.0,30.20,SW,225,4.0,6.0,92,0.00,,,0.00,meteohub,2013-02-11 06:00:00,
2013-02-11 01:05:00,65.3,63.0,30.20,SW,225,4.0,5.0,92,0.00,,,0.00,meteohub,2013-02-11 06:05:00,
2013-02-11 01:10:00,65.3,63.0,30.20,SW,225,4.0,5.0,92,0.00,,,0.00,meteohub,2013-02-11 06:10:00,
2013-02-11 01:15:00,65.3,63.0,30.20,SW,225,4.0,7.0,92,0.00,,,0.00,meteohub,2013-02-11 06:15:00,
2013-02-11 01:20:00,65.3,63.0,30.20,SW,225,6.0,7.0,92,0.00,,,0.00,meteohub,2013-02-11 06:20:00,
2013-02-11 01:25:00,65.3,63.0,30.19,SW,225,5.0,8.0,92,0.00,,,0.00,meteohub,2013-02-11 06:25:00,
2013-02-11 01:31:00,65.3,63.0,30.19,SW,225,5.0,8.0,92,0.00,,,0.00,meteohub,2013-02-11 06:31:00,
2013-02-11 01:36:00,65.3,63.0,30.19,South,180,7.0,8.0,92,0.00,,,0.00,meteohub,2013-02-11 06:36:00,
2013-02-11 01:41:00,65.3,63.0,30.19,SW,225,5.0,8.0,92,0.00,,,0.00,meteohub,2013-02-11 06:41:00,
2013-02-11 01:46:00,65.3,63.0,30.19,South,180,4.0,8.0,92,0.00,,,0.00,meteohub,2013-02-11 06:46:00,
2013-02-11 01:51:00,65.3,63.0,30.19,South,180,4.0,8.0,92,0.00,,,0.00,meteohub,2013-02-11 06:51:00,
2013-02-11 01:56:00,65.5,63.1,30.19,SW,225,6.0,8.0,92,0.00,,,0.00,meteohub,2013-02-11 06:56:00,
2013-02-11 02:01:00,65.5,62.8,30.19,SW,225,5.0,8.0,91,0.00,,,0.00,meteohub,2013-02-11 07:01:00,
2013-02-11 02:06:00,65.5,62.8,30.19,SW,225,5.0,8.0,91,0.00,,,0.00,meteohub,2013-02-11 07:06:00,
2013-02-11 02:12:00,65.7,63.0,30.19,SW,225,8.0,11.0,91,0.00,,,0.00,meteohub,2013-02-11 07:12:00,
2013-02-11 02:17:00,65.7,63.0,30.19,SW,225,6.0,11.0,91,0.00,,,0.00,meteohub,2013-02-11 07:17:00,
2013-02-11 02:22:00,65.5,63.1,30.19,SW,225,8.0,11.0,92,0.00,,,0.00,meteohub,2013-02-11 07:22:00,
2013-02-11 02:27:00,65.5,63.1,30.19,South,180,4.0,11.0,92,0.00,,,0.00,meteohub,2013-02-11 07:27:00,
2013-02-11 02:32:00,65.3,63.0,30.19,SE,135,4.0,8.0,92,0.00,,,0.00,meteohub,2013-02-11 07:32:00,
2013-02-11 02:37:00,65.1,63.0,30.19,SW,225,3.0,8.0,93,0.00,,,0.00,meteohub,2013-02-11 07:37:00,
2013-02-11 02:42:00,64.9,62.8,30.19,SW,225,2.0,7.0,93,0.00,,,0.00,meteohub,2013-02-11 07:42:00,
2013-02-11 02:47:00,64.8,63.0,30.19,SW,225,3.0,4.0,94,0.00,,,0.00,meteohub,2013-02-11 07:47:00,
2013-02-11 02:52:00,64.6,62.8,30.19,SW,225,4.0,4.0,94,0.00,,,0.00,meteohub,2013-02-11 07:52:00,
2013-02-11 02:58:00,64.4,63.0,30.19,South,180,2.0,4.0,95,0.00,,,0.00,meteohub,2013-02-11 07:58:00,
2013-02-11 03:03:00,64.4,63.0,30.18,South,180,3.0,4.0,95,0.00,,,0.00,meteohub,2013-02-11 08:03:00,
2013-02-11 03:08:00,64.4,63.3,30.18,SW,225,4.0,4.0,96,0.00,,,0.00,meteohub,2013-02-11 08:08:00,
2013-02-11 03:13:00,64.2,63.1,30.18,South,180,3.0,4.0,96,0.00,,,0.00,meteohub,2013-02-11 08:13:00,
2013-02-11 03:18:00,64.2,63.3,30.18,South,180,2.0,4.0,97,0.00,,,0.00,meteohub,2013-02-11 08:18:00,
2013-02-11 03:23:00,64.0,63.1,30.18,SW,225,2.0,4.0,97,0.00,,,0.00,meteohub,2013-02-11 08:23:00,
2013-02-11 03:28:00,64.0,63.1,30.18,South,180,2.0,4.0,97,0.00,,,0.00,meteohub,2013-02-11 08:28:00,
2013-02-11 03:33:00,63.9,62.8,30.18,South,180,1.0,4.0,96,0.00,,,0.00,meteohub,2013-02-11 08:33:00,
2013-02-11 03:38:00,63.5,62.4,30.18,South,180,2.0,3.0,96,0.00,,,0.00,meteohub,2013-02-11 08:38:00,
2013-02-11 03:43:00,63.3,62.2,30.18,South,180,2.0,3.0,96,0.00,,,0.00,meteohub,2013-02-11 08:43:00,
2013-02-11 03:48:00,63.0,62.1,30.18,South,180,2.0,3.0,97,0.00,,,0.00,meteohub,2013-02-11 08:48:00,
2013-02-11 03:53:00,62.8,61.9,30.18,South,180,2.0,3.0,97,0.00,,,0.00,meteohub,2013-02-11 08:53:00,
2013-02-11 03:59:00,62.6,62.2,30.17,South,180,2.0,3.0,99,0.00,,,0.00,meteohub,2013-02-11 08:59:00,
2013-02-11 04:04:00,62.6,62.2,30.17,SW,225,2.0,3.0,99,0.00,,,0.00,meteohub,2013-02-11 09:04:00,
2013-02-11 04:09:00,62.6,62.2,30.17,South,180,2.0,3.0,99,0.00,,,0.00,meteohub,2013-02-11 09:09:00,
2013-02-11 04:14:00,62.4,62.1,30.17,SSW,203,2.0,3.0,99,0.00,,,0.00,meteohub,2013-02-11 09:14:00,
2013-02-11 04:19:00,62.4,62.1,30.17,SW,225,2.0,4.0,99,0.00,,,0.00,meteohub,2013-02-11 09:19:00,
2013-02-11 04:24:00,62.4,62.1,30.17,SW,225,2.0,4.0,99,0.00,,,0.00,meteohub,2013-02-11 09:24:00,
2013-02-11 04:29:00,62.4,62.1,30.17,South,180,2.0,4.0,99,0.00,,,0.00,meteohub,2013-02-11 09:29:00,
2013-02-11 04:34:00,62.6,62.2,30.17,SW,225,4.0,4.0,99,0.00,,,0.00,meteohub,2013-02-11 09:34:00,
2013-02-11 04:39:00,62.6,62.2,30.17,South,180,3.0,4.0,99,0.00,,,0.00,meteohub,2013-02-11 09:39:00,
2013-02-11 04:44:00,62.6,62.2,30.17,SW,225,2.0,4.0,99,0.00,,,0.00,meteohub,2013-02-11 09:44:00,
2013-02-11 04:50:00,62.6,62.2,30.17,SW,225,3.0,4.0,99,0.00,,,0.00,meteohub,2013-02-11 09:50:00,
2013-02-11 04:55:00,62.6,62.2,30.17,South,180,2.0,3.0,99,0.00,,,0.00,meteohub,2013-02-11 09:55:00,
2013-02-11 05:00:00,62.8,62.4,30.17,SW,225,4.0,4.0,99,0.00,,,0.00,meteohub,2013-02-11 10:00:00,
2013-02-11 05:05:00,62.8,62.4,30.17,SW,225,4.0,5.0,99,0.00,,,0.00,meteohub,2013-02-11 10:05:00,
2013-02-11 05:10:00,62.8,62.4,30.17,SW,225,6.0,6.0,99,0.00,,,0.00,meteohub,2013-02-11 10:10:00,
2013-02-11 05:15:00,63.0,62.6,30.17,South,180,2.0,6.0,99,0.00,,,0.00,meteohub,2013-02-11 10:15:00,
2013-02-11 05:20:00,63.0,62.6,30.17,SSW,203,4.0,6.0,99,0.00,,,0.00,meteohub,2013-02-11 10:20:00,
2013-02-11 05:25:00,63.0,62.6,30.17,SW,225,2.0,6.0,99,0.00,,,0.00,meteohub,2013-02-11 10:25:00,
2013-02-11 05:30:00,63.0,62.6,30.17,South,180,2.0,6.0,99,0.00,,,0.00,meteohub,2013-02-11 10:30:00,
2013-02-11 05:35:00,63.0,62.6,30.18,SW,225,2.0,6.0,99,0.00,,,0.00,meteohub,2013-02-11 10:35:00,
2013-02-11 05:40:00,63.0,62.6,30.18,SW,225,2.0,4.0,99,0.00,,,0.00,meteohub,2013-02-11 10:40:00,
2013-02-11 05:45:00,62.8,62.4,30.18,SW,225,2.0,3.0,99,0.00,,,0.00,meteohub,2013-02-11 10:45:00,
2013-02-11 05:51:00,62.6,62.2,30.19,SW,225,2.0,3.0,99,0.00,,,0.00,meteohub,2013-02-11 10:51:00,
2013-02-11 05:56:00,62.6,62.2,30.19,SW,225,3.0,3.0,99,0.00,,,0.00,meteohub,2013-02-11 10:56:00,
2013-02-11 06:01:00,62.6,62.2,30.19,SW,225,2.0,3.0,99,0.00,,,0.00,meteohub,2013-02-11 11:01:00,
2013-02-11 06:06:00,62.6,62.2,30.19,SW,225,2.0,3.0,99,0.00,,,0.00,meteohub,2013-02-11 11:06:00,
2013-02-11 06:11:00,62.4,62.1,30.19,SW,225,0.0,3.0,99,0.00,,,0.00,meteohub,2013-02-11 11:11:00,
2013-02-11 06:16:00,62.2,61.9,30.19,SW,225,0.0,3.0,99,0.00,,,0.00,meteohub,2013-02-11 11:16:00,
2013-02-11 06:21:00,62.2,61.9,30.19,SW,225,1.0,3.0,99,0.00,,,0.00,meteohub,2013-02-11 11:21:00,
2013-02-11 06:26:00,62.2,61.9,30.19,South,180,2.0,2.0,99,0.00,,,0.00,meteohub,2013-02-11 11:26:00,
2013-02-11 06:31:00,62.1,61.7,30.20,SSW,203,0.0,2.0,99,0.00,,,0.00,meteohub,2013-02-11 11:31:00,
2013-02-11 06:36:00,62.2,61.9,30.20,SW,225,0.0,2.0,99,0.00,,,0.00,meteohub,2013-02-11 11:36:00,
2013-02-11 06:42:00,62.2,61.9,30.20,SSW,203,2.0,2.0,99,0.00,,,0.00,meteohub,2013-02-11 11:42:00,
2013-02-11 06:47:00,62.1,61.7,30.20,South,180,2.0,2.0,99,0.00,,,0.00,meteohub,2013-02-11 11:47:00,
2013-02-11 06:52:00,62.1,61.7,30.20,South,180,2.0,4.0,99,0.00,,,0.00,meteohub,2013-02-11 11:52:00,
2013-02-11 06:57:00,62.1,61.7,30.20,South,180,3.0,4.0,99,0.00,,,0.00,meteohub,2013-02-11 11:57:00,
2013-02-11 07:02:00,62.1,61.7,30.20,SW,225,2.0,4.0,99,0.00,,,0.00,meteohub,2013-02-11 12:02:00,
2013-02-11 07:07:00,62.1,61.7,30.21,SW,225,2.0,4.0,99,0.00,,,0.00,meteohub,2013-02-11 12:07:00,
2013-02-11 07:12:00,62.1,61.7,30.20,West,270,0.0,4.0,99,0.00,,,0.00,meteohub,2013-02-11 12:12:00,
2013-02-11 07:17:00,62.1,61.7,30.21,SW,225,0.0,2.0,99,0.00,,,0.00,meteohub,2013-02-11 12:17:00,
2013-02-11 07:22:00,62.2,61.9,30.20,SW,225,4.0,5.0,99,0.00,,,0.00,meteohub,2013-02-11 12:22:00,
2013-02-11 07:27:00,62.4,62.1,30.21,SW,225,3.0,5.0,99,0.00,,,0.00,meteohub,2013-02-11 12:27:00,
2013-02-11 07:32:00,62.8,62.4,30.21,SW,225,2.0,5.0,99,0.00,,,0.00,meteohub,2013-02-11 12:32:00,
2013-02-11 07:37:00,63.0,62.6,30.21,SW,225,2.0,5.0,99,0.00,,,0.00,meteohub,2013-02-11 12:37:00,
2013-02-11 07:42:00,63.3,63.0,30.21,SW,225,4.0,5.0,99,0.00,,,0.00,meteohub,2013-02-11 12:42:00,
2013-02-11 07:47:00,63.9,63.5,30.21,SW,225,3.0,6.0,99,0.00,,,0.00,meteohub,2013-02-11 12:47:00,
2013-02-11 07:52:00,64.2,63.9,30.22,South,180,2.0,6.0,99,0.00,,,0.00,meteohub,2013-02-11 12:52:00,
2013-02-11 07:58:00,64.9,64.6,30.22,SW,225,0.0,4.0,99,0.00,,,0.00,meteohub,2013-02-11 12:58:00,
2013-02-11 08:03:00,65.3,64.9,30.22,SW,225,4.0,4.0,99,0.00,,,0.00,meteohub,2013-02-11 13:03:00,
2013-02-11 08:08:00,65.8,65.5,30.22,SW,225,5.0,5.0,99,0.00,,,0.00,meteohub,2013-02-11 13:08:00,
2013-02-11 08:13:00,66.6,66.2,30.22,SW,225,2.0,6.0,99,0.00,,,0.00,meteohub,2013-02-11 13:13:00,
2013-02-11 08:18:00,67.1,66.2,30.22,SW,225,4.0,6.0,97,0.00,,,0.00,meteohub,2013-02-11 13:18:00,
2013-02-11 08:23:00,67.5,66.0,30.23,SW,225,5.0,6.0,95,0.00,,,0.00,meteohub,2013-02-11 13:23:00,
2013-02-11 08:29:00,68.0,66.2,30.22,South,180,4.0,7.0,94,0.00,,,0.00,meteohub,2013-02-11 13:29:00,
2013-02-11 08:34:00,68.4,66.0,30.23,SW,225,4.0,7.0,92,0.00,,,0.00,meteohub,2013-02-11 13:34:00,
2013-02-11 08:39:00,68.9,65.8,30.23,SW,225,4.0,7.0,90,0.00,,,0.00,meteohub,2013-02-11 13:39:00,
2013-02-11 08:44:00,69.3,65.5,30.23,SW,225,6.0,8.0,88,0.00,,,0.00,meteohub,2013-02-11 13:44:00,
2013-02-11 08:49:00,69.6,65.7,30.23,SW,225,8.0,9.0,87,0.00,,,0.00,meteohub,2013-02-11 13:49:00,
2013-02-11 08:54:00,70.3,66.0,30.23,SW,225,4.0,9.0,86,0.00,,,0.00,meteohub,2013-02-11 13:54:00,
2013-02-11 08:59:00,70.9,65.8,30.23,SW,225,5.0,9.0,84,0.00,,,0.00,meteohub,2013-02-11 13:59:00,
2013-02-11 09:04:00,71.2,65.8,30.23,SW,225,8.0,8.0,83,0.00,,,0.00,meteohub,2013-02-11 14:04:00,
2013-02-11 09:10:00,71.8,65.7,30.22,SW,225,8.0,8.0,81,0.00,,,0.00,meteohub,2013-02-11 14:10:00,
2013-02-11 09:15:00,72.0,65.5,30.23,West,270,15.0,15.0,80,0.00,,,0.00,meteohub,2013-02-11 14:15:00,
2013-02-11 09:20:00,72.1,66.0,30.23,SW,225,7.0,15.0,81,0.00,,,0.00,meteohub,2013-02-11 14:20:00,
2013-02-11 09:25:00,72.3,65.5,30.22,SW,225,12.0,15.0,79,0.00,,,0.00,meteohub,2013-02-11 14:25:00,
2013-02-11 09:30:00,72.7,65.8,30.22,SW,225,8.0,15.0,79,0.00,,,0.00,meteohub,2013-02-11 14:30:00,
2013-02-11 09:35:00,72.9,65.3,30.23,SW,225,13.0,13.0,77,0.00,,,0.00,meteohub,2013-02-11 14:35:00,
2013-02-11 09:40:00,73.0,65.8,30.23,SW,225,9.0,17.0,78,0.00,,,0.00,meteohub,2013-02-11 14:40:00,
2013-02-11 09:45:00,73.4,65.7,30.23,South,180,10.0,17.0,77,0.00,,,0.00,meteohub,2013-02-11 14:45:00,
2013-02-11 09:50:00,73.8,65.3,30.23,SW,225,19.0,19.0,75,0.00,,,0.00,meteohub,2013-02-11 14:50:00,
2013-02-11 09:56:00,74.3,65.5,30.23,West,270,9.0,19.0,74,0.00,,,0.00,meteohub,2013-02-11 14:56:00,
2013-02-11 10:01:00,74.5,65.7,30.23,South,180,11.0,19.0,74,0.00,,,0.00,meteohub,2013-02-11 15:01:00,
2013-02-11 10:06:00,75.0,65.8,30.23,South,180,9.0,19.0,73,0.00,,,0.00,meteohub,2013-02-11 15:06:00,
2013-02-11 10:11:00,75.2,66.0,30.23,NW,315,9.0,14.0,73,0.00,,,0.00,meteohub,2013-02-11 15:11:00,
2013-02-11 10:16:00,75.6,65.1,30.23,SW,225,8.0,14.0,70,0.00,,,0.00,meteohub,2013-02-11 15:16:00,
2013-02-11 10:21:00,76.1,65.7,30.23,NW,315,8.0,14.0,70,0.00,,,0.00,meteohub,2013-02-11 15:21:00,
2013-02-11 10:26:00,76.5,65.1,30.23,SW,225,9.0,13.0,68,0.00,,,0.00,meteohub,2013-02-11 15:26:00,
2013-02-11 10:31:00,77.2,65.8,30.23,SW,225,6.0,13.0,68,0.00,,,0.00,meteohub,2013-02-11 15:31:00,
2013-02-11 10:36:00,77.5,64.8,30.23,SW,225,6.0,13.0,65,0.00,,,0.00,meteohub,2013-02-11 15:36:00,
2013-02-11 10:42:00,77.7,64.9,30.23,West,270,13.0,13.0,65,0.00,,,0.00,meteohub,2013-02-11 15:42:00,
2013-02-11 10:47:00,77.7,64.0,30.22,SW,225,8.0,13.0,63,0.00,,,0.00,meteohub,2013-02-11 15:47:00,
2013-02-11 10:52:00,77.7,64.6,30.22,South,180,11.0,13.0,64,0.00,,,0.00,meteohub,2013-02-11 15:52:00,
2013-02-11 10:57:00,77.9,64.8,30.23,SW,225,8.0,14.0,64,0.00,,,0.00,meteohub,2013-02-11 15:57:00,
2013-02-11 11:02:00,78.1,64.4,30.22,SW,225,8.0,14.0,63,0.00,,,0.00,meteohub,2013-02-11 16:02:00,
2013-02-11 11:07:00,78.6,64.0,30.22,West,270,8.0,14.0,61,0.00,,,0.00,meteohub,2013-02-11 16:07:00,
2013-02-11 11:12:00,79.2,63.7,30.23,NW,315,10.0,13.0,59,0.00,,,0.00,meteohub,2013-02-11 16:12:00,
2013-02-11 11:17:00,79.3,63.7,30.22,SW,225,10.0,11.0,59,0.00,,,0.00,meteohub,2013-02-11 16:17:00,
2013-02-11 11:22:00,79.5,64.4,30.22,North,0,8.0,10.0,60,0.00,,,0.00,meteohub,2013-02-11 16:22:00,
2013-02-11 11:28:00,79.5,63.9,30.22,SW,225,8.0,11.0,59,0.00,,,0.00,meteohub,2013-02-11 16:28:00,
2013-02-11 11:33:00,79.7,63.7,30.22,SW,225,8.0,11.0,58,0.00,,,0.00,meteohub,2013-02-11 16:33:00,
2013-02-11 11:38:00,79.7,63.7,30.22,SW,225,8.0,11.0,58,0.00,,,0.00,meteohub,2013-02-11 16:38:00,
2013-02-11 11:43:00,80.1,63.5,30.21,West,270,7.0,11.0,57,0.00,,,0.00,meteohub,2013-02-11 16:43:00,
2013-02-11 11:48:00,79.5,63.9,30.21,SW,225,7.0,11.0,59,0.00,,,0.00,meteohub,2013-02-11 16:48:00,
2013-02-11 11:53:00,79.3,63.7,30.21,West,270,10.0,10.0,59,0.00,,,0.00,meteohub,2013-02-11 16:53:00,
2013-02-11 11:58:00,79.2,64.0,30.20,SW,225,6.0,10.0,60,0.00,,,0.00,meteohub,2013-02-11 16:58:00,
2013-02-11 12:03:00,79.5,63.5,30.21,SW,225,9.0,10.0,58,0.00,,,0.00,meteohub,2013-02-11 17:03:00,
2013-02-11 12:09:00,79.9,63.9,30.21,West,270,6.0,13.0,58,0.00,,,0.00,meteohub,2013-02-11 17:09:00,
2013-02-11 12:14:00,80.6,63.0,30.20,South,180,8.0,13.0,55,0.00,,,0.00,meteohub,2013-02-11 17:14:00,
2013-02-11 12:19:00,80.8,63.7,30.20,SW,225,11.0,13.0,56,0.00,,,0.00,meteohub,2013-02-11 17:19:00,
2013-02-11 12:24:00,79.9,63.3,30.20,South,180,4.0,11.0,57,0.00,,,0.00,meteohub,2013-02-11 17:24:00,
2013-02-11 12:29:00,80.8,64.0,30.19,NW,315,7.0,11.0,57,0.00,,,0.00,meteohub,2013-02-11 17:29:00,
2013-02-11 12:34:00,81.1,62.4,30.19,NW,315,5.0,11.0,53,0.00,,,0.00,meteohub,2013-02-11 17:34:00,
2013-02-11 12:39:00,81.7,63.0,30.19,SE,135,8.0,10.0,53,0.00,,,0.00,meteohub,2013-02-11 17:39:00,
2013-02-11 12:44:00,81.9,60.3,30.19,SW,225,11.0,11.0,48,0.00,,,0.00,meteohub,2013-02-11 17:44:00,
2013-02-11 12:50:00,82.0,61.5,30.18,SW,225,7.0,12.0,50,0.00,,,0.00,meteohub,2013-02-11 17:50:00,
2013-02-11 12:55:00,82.8,59.9,30.18,NW,315,7.0,12.0,46,0.00,,,0.00,meteohub,2013-02-11 17:55:00,
2013-02-11 13:00:00,82.2,61.2,30.17,West,270,5.0,11.0,49,0.00,,,0.00,meteohub,2013-02-11 18:00:00,
2013-02-11 13:05:00,82.8,60.4,30.17,SW,225,11.0,11.0,47,0.00,,,0.00,meteohub,2013-02-11 18:05:00,
2013-02-11 13:10:00,83.1,59.5,30.17,West,270,8.0,11.0,45,0.00,,,0.00,meteohub,2013-02-11 18:10:00,
2013-02-11 13:15:00,82.4,59.5,30.17,SW,225,11.0,11.0,46,0.00,,,0.00,meteohub,2013-02-11 18:15:00,
2013-02-11 13:20:00,81.7,60.1,30.17,SW,225,8.0,11.0,48,0.00,,,0.00,meteohub,2013-02-11 18:20:00,
2013-02-11 13:25:00,80.8,59.9,30.16,SW,225,8.0,11.0,49,0.00,,,0.00,meteohub,2013-02-11 18:25:00,
2013-02-11 13:30:00,80.4,61.2,30.16,West,270,8.0,11.0,52,0.00,,,0.00,meteohub,2013-02-11 18:30:00,
2013-02-11 13:36:00,81.3,57.9,30.16,SW,225,14.0,14.0,45,0.00,,,0.00,meteohub,2013-02-11 18:36:00,
2013-02-11 13:41:00,82.4,57.7,30.16,West,270,11.0,14.0,43,0.00,,,0.00,meteohub,2013-02-11 18:41:00,
2013-02-11 13:46:00,82.4,60.1,30.15,West,270,4.0,14.0,47,0.00,,,0.00,meteohub,2013-02-11 18:46:00,
2013-02-11 13:51:00,82.4,58.3,30.15,West,270,4.0,14.0,44,0.00,,,0.00,meteohub,2013-02-11 18:51:00,
2013-02-11 13:56:00,83.1,58.3,30.15,North,0,9.0,11.0,43,0.00,,,0.00,meteohub,2013-02-11 18:56:00,
2013-02-11 14:01:00,82.8,59.2,30.14,West,270,8.0,10.0,45,0.00,,,0.00,meteohub,2013-02-11 19:01:00,
2013-02-11 14:06:00,82.2,57.6,30.14,SW,225,8.0,10.0,43,0.00,,,0.00,meteohub,2013-02-11 19:06:00,
2013-02-11 14:11:00,81.5,59.9,30.14,South,180,8.0,12.0,48,0.00,,,0.00,meteohub,2013-02-11 19:11:00,
2013-02-11 14:17:00,82.4,59.5,30.14,North,0,8.0,12.0,46,0.00,,,0.00,meteohub,2013-02-11 19:17:00,
2013-02-11 14:22:00,83.1,59.0,30.14,West,270,11.0,12.0,44,0.00,,,0.00,meteohub,2013-02-11 19:22:00,
2013-02-11 14:27:00,82.9,58.1,30.14,West,270,3.0,11.0,43,0.00,,,0.00,meteohub,2013-02-11 19:27:00,
2013-02-11 14:32:00,82.4,59.0,30.14,SW,225,6.0,11.0,45,0.00,,,0.00,meteohub,2013-02-11 19:32:00,
2013-02-11 14:37:00,82.4,58.3,30.14,West,270,10.0,11.0,44,0.00,,,0.00,meteohub,2013-02-11 19:37:00,
2013-02-11 14:42:00,82.6,58.5,30.14,NW,315,11.0,11.0,44,0.00,,,0.00,meteohub,2013-02-11 19:42:00,
2013-02-11 14:47:00,82.2,58.8,30.14,West,270,10.0,11.0,45,0.00,,,0.00,meteohub,2013-02-11 19:47:00,
2013-02-11 14:52:00,81.9,59.0,30.13,West,270,4.0,11.0,46,0.00,,,0.00,meteohub,2013-02-11 19:52:00,
2013-02-11 14:57:00,82.2,59.4,30.13,North,0,4.0,11.0,46,0.00,,,0.00,meteohub,2013-02-11 19:57:00,
2013-02-11 15:02:00,82.8,60.4,30.13,North,0,6.0,10.0,47,0.00,,,0.00,meteohub,2013-02-11 20:02:00,
2013-02-11 15:07:00,83.3,59.2,30.13,NW,315,5.0,10.0,44,0.00,,,0.00,meteohub,2013-02-11 20:07:00,
2013-02-11 15:12:00,83.1,59.0,30.13,West,270,10.0,10.0,44,0.00,,,0.00,meteohub,2013-02-11 20:12:00,
2013-02-11 15:17:00,82.9,58.8,30.12,West,270,8.0,12.0,44,0.00,,,0.00,meteohub,2013-02-11 20:17:00,
2013-02-11 15:22:00,83.1,57.6,30.12,West,270,4.0,12.0,42,0.00,,,0.00,meteohub,2013-02-11 20:22:00,
2013-02-11 15:27:00,83.1,58.3,30.12,SW,225,6.0,11.0,43,0.00,,,0.00,meteohub,2013-02-11 20:27:00,
2013-02-11 15:32:00,83.1,58.3,30.12,NW,315,5.0,10.0,43,0.00,,,0.00,meteohub,2013-02-11 20:32:00,
2013-02-11 15:37:00,83.3,58.5,30.12,West,270,11.0,11.0,43,0.00,,,0.00,meteohub,2013-02-11 20:37:00,
2013-02-11 15:42:00,82.8,57.4,30.12,West,270,9.0,11.0,42,0.00,,,0.00,meteohub,2013-02-11 20:42:00,
2013-02-11 15:47:00,82.4,57.7,30.12,North,0,4.0,11.0,43,0.00,,,0.00,meteohub,2013-02-11 20:47:00,
2013-02-11 15:52:00,82.6,57.7,30.12,West,270,8.0,11.0,43,0.00,,,0.00,meteohub,2013-02-11 20:52:00,
2013-02-11 15:57:00,82.8,57.4,30.12,West,270,7.0,11.0,42,0.00,,,0.00,meteohub,2013-02-11 20:57:00,
2013-02-11 16:02:00,82.9,57.6,30.12,NW,315,6.0,9.0,42,0.00,,,0.00,meteohub,2013-02-11 21:02:00,
2013-02-11 16:07:00,82.8,57.4,30.12,NW,315,8.0,8.0,42,0.00,,,0.00,meteohub,2013-02-11 21:07:00,
2013-02-11 16:12:00,82.6,57.7,30.12,NW,315,4.0,9.0,43,0.00,,,0.00,meteohub,2013-02-11 21:12:00,
2013-02-11 16:17:00,82.6,59.0,30.12,NW,315,4.0,9.0,45,0.00,,,0.00,meteohub,2013-02-11 21:17:00,
2013-02-11 16:22:00,82.6,59.0,30.12,NW,315,4.0,9.0,45,0.00,,,0.00,meteohub,2013-02-11 21:22:00,
2013-02-11 16:27:00,82.4,60.1,30.12,NE,45,4.0,11.0,47,0.00,,,0.00,meteohub,2013-02-11 21:27:00,
2013-02-11 16:32:00,82.0,59.2,30.12,NW,315,8.0,11.0,46,0.00,,,0.00,meteohub,2013-02-11 21:32:00,
2013-02-11 16:37:00,81.5,59.9,30.12,NW,315,7.0,11.0,48,0.00,,,0.00,meteohub,2013-02-11 21:37:00,
2013-02-11 16:42:00,81.1,60.1,30.12,West,270,6.0,11.0,49,0.00,,,0.00,meteohub,2013-02-11 21:42:00,
2013-02-11 16:47:00,80.6,60.3,30.12,SW,225,5.0,11.0,50,0.00,,,0.00,meteohub,2013-02-11 21:47:00,
2013-02-11 16:52:00,80.6,59.7,30.11,NW,315,5.0,11.0,49,0.00,,,0.00,meteohub,2013-02-11 21:52:00,
2013-02-11 16:57:00,80.4,60.6,30.11,SW,225,8.0,10.0,51,0.00,,,0.00,meteohub,2013-02-11 21:57:00,
2013-02-11 17:02:00,80.4,60.6,30.11,NW,315,8.0,10.0,51,0.00,,,0.00,meteohub,2013-02-11 22:02:00,
2013-02-11 17:07:00,80.1,61.3,30.11,SW,225,6.0,10.0,53,0.00,,,0.00,meteohub,2013-02-11 22:07:00,
2013-02-11 17:12:00,79.7,62.1,30.11,West,270,9.0,10.0,55,0.00,,,0.00,meteohub,2013-02-11 22:12:00,
2013-02-11 17:17:00,79.3,61.7,30.12,NW,315,9.0,10.0,55,0.00,,,0.00,meteohub,2013-02-11 22:17:00,
2013-02-11 17:22:00,79.0,61.9,30.12,West,270,8.0,11.0,56,0.00,,,0.00,meteohub,2013-02-11 22:22:00,
2013-02-11 17:28:00,78.6,62.1,30.11,NW,315,7.0,11.0,57,0.00,,,0.00,meteohub,2013-02-11 22:28:00,
2013-02-11 17:33:00,78.3,62.2,30.11,North,0,7.0,11.0,58,0.00,,,0.00,meteohub,2013-02-11 22:33:00,
2013-02-11 17:38:00,77.9,63.0,30.11,NW,315,2.0,11.0,60,0.00,,,0.00,meteohub,2013-02-11 22:38:00,
2013-02-11 17:43:00,77.5,62.6,30.11,NNW,338,7.0,9.0,60,0.00,,,0.00,meteohub,2013-02-11 22:43:00,
2013-02-11 17:48:00,77.4,62.8,30.11,NW,315,8.0,9.0,61,0.00,,,0.00,meteohub,2013-02-11 22:48:00,
2013-02-11 17:53:00,77.2,63.1,30.11,WNW,293,2.0,8.0,62,0.00,,,0.00,meteohub,2013-02-11 22:53:00,
2013-02-11 17:58:00,76.8,63.7,30.11,SE,135,2.0,8.0,64,0.00,,,0.00,meteohub,2013-02-11 22:58:00,
2013-02-11 18:03:00,76.6,63.5,30.11,South,180,5.0,8.0,64,0.00,,,0.00,meteohub,2013-02-11 23:03:00,
2013-02-11 18:08:00,76.1,63.5,30.11,SW,225,5.0,6.0,65,0.00,,,0.00,meteohub,2013-02-11 23:08:00,
2013-02-11 18:13:00,75.9,63.7,30.12,North,0,4.0,6.0,66,0.00,,,0.00,meteohub,2013-02-11 23:13:00,
2013-02-11 18:19:00,75.6,63.9,30.12,SW,225,4.0,6.0,67,0.00,,,0.00,meteohub,2013-02-11 23:19:00,
2013-02-11 18:24:00,75.2,63.9,30.12,SW,225,3.0,6.0,68,0.00,,,0.00,meteohub,2013-02-11 23:24:00,
2013-02-11 18:29:00,74.8,64.0,30.12,West,270,3.0,7.0,69,0.00,,,0.00,meteohub,2013-02-11 23:29:00,
2013-02-11 18:34:00,74.5,63.7,30.12,NW,315,3.0,7.0,69,0.00,,,0.00,meteohub,2013-02-11 23:34:00,
2013-02-11 18:39:00,74.1,63.3,30.12,North,0,5.0,7.0,69,0.00,,,0.00,meteohub,2013-02-11 23:39:00,
2013-02-11 18:44:00,73.9,63.5,30.12,NW,315,4.0,7.0,70,0.00,,,0.00,meteohub,2013-02-11 23:44:00,
2013-02-11 18:49:00,73.8,63.3,30.12,NW,315,4.0,7.0,70,0.00,,,0.00,meteohub,2013-02-11 23:49:00,
2013-02-11 18:54:00,73.4,63.5,30.13,SW,225,2.0,7.0,71,0.00,,,0.00,meteohub,2013-02-11 23:54:00,
2013-02-11 18:59:00,73.2,63.3,30.12,West,270,2.0,4.0,71,0.00,,,0.00,meteohub,2013-02-11 23:59:00,
2013-02-11 19:05:00,73.0,63.5,30.12,East,90,2.0,4.0,72,0.00,,,0.00,meteohub,2013-02-12 00:05:00,
2013-02-11 19:10:00,72.9,63.7,30.12,SW,225,2.0,4.0,73,0.00,,,0.00,meteohub,2013-02-12 00:10:00,
2013-02-11 19:15:00,72.7,63.9,30.12,West,270,2.0,4.0,74,0.00,,,0.00,meteohub,2013-02-12 00:15:00,
2013-02-11 19:20:00,72.5,64.0,30.13,SW,225,4.0,4.0,75,0.00,,,0.00,meteohub,2013-02-12 00:20:00,
2013-02-11 19:25:00,72.3,64.4,30.13,West,270,2.0,4.0,76,0.00,,,0.00,meteohub,2013-02-12 00:25:00,
2013-02-11 19:30:00,72.1,64.2,30.13,West,270,3.0,4.0,76,0.00,,,0.00,meteohub,2013-02-12 00:30:00,
2013-02-11 19:35:00,71.8,64.2,30.13,West,270,1.0,4.0,77,0.00,,,0.00,meteohub,2013-02-12 00:35:00,
2013-02-11 19:40:00,71.6,64.0,30.13,North,0,1.0,4.0,77,0.00,,,0.00,meteohub,2013-02-12 00:40:00,
2013-02-11 19:46:00,71.2,64.0,30.13,NW,315,0.0,3.0,78,0.00,,,0.00,meteohub,2013-02-12 00:46:00,
2013-02-11 19:51:00,70.9,64.0,30.14,NW,315,2.0,2.0,79,0.00,,,0.00,meteohub,2013-02-12 00:51:00,
2013-02-11 19:56:00,70.7,64.2,30.13,SW,225,0.0,2.0,80,0.00,,,0.00,meteohub,2013-02-12 00:56:00,
2013-02-11 20:01:00,70.3,63.9,30.14,West,270,0.0,2.0,80,0.00,,,0.00,meteohub,2013-02-12 01:01:00,
2013-02-11 20:06:00,70.0,63.9,30.14,West,270,0.0,2.0,81,0.00,,,0.00,meteohub,2013-02-12 01:06:00,
2013-02-11 20:11:00,69.6,63.9,30.14,West,270,0.0,0.0,82,0.00,,,0.00,meteohub,2013-02-12 01:11:00,
2013-02-11 20:16:00,69.4,64.0,30.14,West,270,2.0,2.0,83,0.00,,,0.00,meteohub,2013-02-12 01:16:00,
2013-02-11 20:21:00,69.4,64.8,30.14,West,270,2.0,2.0,85,0.00,,,0.00,meteohub,2013-02-12 01:21:00,
2013-02-11 20:27:00,69.3,64.6,30.14,West,270,2.0,2.0,85,0.00,,,0.00,meteohub,2013-02-12 01:27:00,
2013-02-11 20:32:00,69.3,64.9,30.14,West,270,1.0,2.0,86,0.00,,,0.00,meteohub,2013-02-12 01:32:00,
2013-02-11 20:37:00,69.3,64.9,30.14,West,270,0.0,2.0,86,0.00,,,0.00,meteohub,2013-02-12 01:37:00,
2013-02-11 20:42:00,69.1,65.1,30.14,West,270,1.0,2.0,87,0.00,,,0.00,meteohub,2013-02-12 01:42:00,
2013-02-11 20:47:00,68.9,64.9,30.14,West,270,0.0,2.0,87,0.00,,,0.00,meteohub,2013-02-12 01:47:00,
2013-02-11 20:52:00,68.7,64.9,30.14,West,270,0.0,2.0,88,0.00,,,0.00,meteohub,2013-02-12 01:52:00,
2013-02-11 20:57:00,68.7,65.3,30.14,SW,225,0.0,2.0,89,0.00,,,0.00,meteohub,2013-02-12 01:57:00,
2013-02-11 21:02:00,68.7,65.3,30.14,West,270,2.0,2.0,89,0.00,,,0.00,meteohub,2013-02-12 02:02:00,
2013-02-11 21:07:00,68.9,65.8,30.14,NW,315,2.0,4.0,90,0.00,,,0.00,meteohub,2013-02-12 02:07:00,
2013-02-11 21:12:00,68.7,65.7,30.14,West,270,2.0,4.0,90,0.00,,,0.00,meteohub,2013-02-12 02:12:00,
2013-02-11 21:17:00,68.9,66.2,30.14,SW,225,2.0,4.0,91,0.00,,,0.00,meteohub,2013-02-12 02:17:00,
2013-02-11 21:22:00,68.9,66.6,30.15,SW,225,1.0,2.0,92,0.00,,,0.00,meteohub,2013-02-12 02:22:00,
2013-02-11 21:27:00,68.7,66.4,30.15,SW,225,1.0,2.0,92,0.00,,,0.00,meteohub,2013-02-12 02:27:00,
2013-02-11 21:32:00,68.7,66.6,30.14,SW,225,0.0,2.0,93,0.00,,,0.00,meteohub,2013-02-12 02:32:00,
2013-02-11 21:37:00,68.5,66.4,30.14,SW,225,0.0,2.0,93,0.00,,,0.00,meteohub,2013-02-12 02:37:00,
2013-02-11 21:42:00,68.5,66.7,30.14,SW,225,2.0,2.0,94,0.00,,,0.00,meteohub,2013-02-12 02:42:00,
2013-02-11 21:47:00,68.4,66.9,30.14,SW,225,2.0,2.0,95,0.00,,,0.00,meteohub,2013-02-12 02:47:00,
2013-02-11 21:52:00,68.4,67.1,30.14,West,270,0.0,2.0,96,0.00,,,0.00,meteohub,2013-02-12 02:52:00,
2013-02-11 21:57:00,68.4,67.1,30.14,West,270,2.0,2.0,96,0.00,,,0.00,meteohub,2013-02-12 02:57:00,
2013-02-11 22:02:00,68.4,67.5,30.14,SW,225,2.0,2.0,97,0.00,,,0.00,meteohub,2013-02-12 03:02:00,
2013-02-11 22:07:00,68.4,67.8,30.14,West,270,2.0,2.0,98,0.00,,,0.00,meteohub,2013-02-12 03:07:00,
2013-02-11 22:12:00,68.4,67.8,30.14,SW,225,2.0,3.0,98,0.00,,,0.00,meteohub,2013-02-12 03:12:00,
2013-02-11 22:17:00,68.5,68.0,30.14,SW,225,0.0,3.0,98,0.00,,,0.00,meteohub,2013-02-12 03:17:00,
2013-02-11 22:22:00,68.4,67.5,30.14,SW,225,0.0,3.0,97,0.00,,,0.00,meteohub,2013-02-12 03:22:00,
2013-02-11 22:27:00,68.2,67.3,30.14,SW,225,0.0,2.0,97,0.00,,,0.00,meteohub,2013-02-12 03:27:00,
2013-02-11 22:32:00,68.0,67.1,30.14,SW,225,0.0,2.0,97,0.00,,,0.00,meteohub,2013-02-12 03:32:00,
2013-02-11 22:37:00,67.8,67.3,30.14,SW,225,2.0,2.0,98,0.00,,,0.00,meteohub,2013-02-12 03:37:00,
2013-02-11 22:42:00,67.8,67.5,30.14,SW,225,1.0,2.0,99,0.00,,,0.00,meteohub,2013-02-12 03:42:00,
2013-02-11 22:47:00,68.0,67.6,30.14,SW,225,0.0,2.0,99,0.00,,,0.00,meteohub,2013-02-12 03:47:00,
2013-02-11 22:52:00,68.0,67.6,30.14,SW,225,0.0,2.0,99,0.00,,,0.00,meteohub,2013-02-12 03:52:00,
2013-02-11 22:57:00,68.0,67.6,30.14,West,270,0.0,2.0,99,0.00,,,0.00,meteohub,2013-02-12 03:57:00,
2013-02-11 23:02:00,68.0,67.6,30.15,West,270,0.0,2.0,99,0.00,,,0.00,meteohub,2013-02-12 04:02:00,
2013-02-11 23:07:00,68.2,67.8,30.14,West,270,0.0,2.0,99,0.00,,,0.00,meteohub,2013-02-12 04:07:00,
2013-02-11 23:12:00,68.0,67.6,30.14,West,270,0.0,2.0,99,0.00,,,0.00,meteohub,2013-02-12 04:12:00,
2013-02-11 23:17:00,68.0,67.6,30.14,SW,225,2.0,0.0,99,0.00,,,0.00,meteohub,2013-02-12 04:17:00,
2013-02-11 23:22:00,68.2,67.8,30.14,SW,225,2.0,3.0,99,0.00,,,0.00,meteohub,2013-02-12 04:22:00,
2013-02-11 23:27:00,68.2,67.8,30.14,West,270,0.0,3.0,99,0.00,,,0.00,meteohub,2013-02-12 04:27:00,
2013-02-11 23:32:00,68.2,67.8,30.14,West,270,0.0,3.0,99,0.00,,,0.00,meteohub,2013-02-12 04:32:00,
2013-02-11 23:37:00,68.0,67.6,30.14,West,270,0.0,2.0,99,0.00,,,0.00,meteohub,2013-02-12 04:37:00,
2013-02-11 23:42:00,67.6,67.3,30.14,West,270,0.0,1.0,99,0.00,,,0.00,meteohub,2013-02-12 04:42:00,
2013-02-11 23:47:00,67.3,66.9,30.14,West,270,0.0,0.0,99,0.00,,,0.00,meteohub,2013-02-12 04:47:00,
2013-02-11 23:52:00,67.1,66.7,30.14,West,270,0.0,0.0,99,0.00,,,0.00,meteohub,2013-02-12 04:52:00,
2013-02-11 23:57:00,66.7,66.4,30.15,West,270,0.0,0.0,99,0.00,,,0.00,meteohub,2013-02-12 04:57:00,